Aérodrome :
LOGIN :

S'inscrire | Disclaimer

   EN    FR    IT 

 










Légende :    VFR   VFR Marginal   IFR   IFR Intensif   IFR Très Intensif
Visi : 
Plafond : 
>= 8 km
>= 3000ft
5 à 8 km
1000 à 3000 ft
1500m à 5 km
500 à 1000 ft
800 à 1500m
200 à 500 ft
< 800m
< 200 ft
Symboles :   Orages  Brouillard  Fortes neiges  Fortes précipitations  Vent > 20 kt
SIGMETs :   Divers  Orages  Givrage  Turbulence  Onde Orograph.  Cendres Volcan.







- Altitude de l'aérodrome : 257 ft
- Code IATA : MAN
- Voir les cartes d'approche


EGCC - Manchester

DERNIER METAR :
  • 172050Z AUTO VRB03KT 9999 BKN041 05/02 Q1025

METARs EXPIRÉS :
  • 172020Z AUTO VRB03KT 9999 OVC032 05/02 Q1025 NOSIG
  • 171950Z AUTO VRB03KT 9999 BKN029 OVC037 05/02 Q1025 NOSIG
  • 171920Z AUTO 24006KT 9999 BKN030 06/02 Q1026 NOSIG
  • 171850Z AUTO 24007KT 9999 BKN034 06/02 Q1026 NOSIG
  • 171820Z AUTO 23006KT 9999 BKN036 BKN044 06/03 Q1026 NOSIG

TAF TAF EGCC
Valide du 17 à 18h jusqu'au 19 à 00h UTC


171702Z 1718/1824 24007KT 9999 SCT035
BECMG 1809/1812 30010KT
PROB30
TEMPO 1809/1812 8000 -SHRA BKN013
ATIS : +44 161 499 2324
Pas de NOTAMs connus pour ce terrain.



MET'MAP, la Météo Aéronautique d'un coup d'oeil ! - Copyright ORBIFLY Décembre 2007 - Disclaimer

ORBIFLY MET'MAP TEAM :

Programmation & Développement : Alexandra Zaïnal
Conception & Développement : Baudouin d'Aumeries
Co-Programmation & Développement : Marc-Olivier Méhu
Soutien technique & logistique : Manuel Goepfert

Contact : metmap@orbifly.com




SOURCES & CREDITS :

   NOAA